sensor_id;sensor_type;location;lat;lon;timestamp;pressure;altitude;pressure_sealevel;temperature;humidity
39443;BME280;25147;52.142;9.960;2023-08-30T00:00:56;99607.97;;;11.71;100.00
39443;BME280;25147;52.142;9.960;2023-08-30T00:03:28;99727.13;;;12.42;100.00
39443;BME280;25147;52.142;9.960;2023-08-30T00:06:14;99768.44;;;12.62;100.00
39443;BME280;25147;52.142;9.960;2023-08-30T00:08:45;99885.16;;;13.30;100.00
39443;BME280;25147;52.142;9.960;2023-08-30T00:11:23;99797.69;;;12.76;100.00
39443;BME280;25147;52.142;9.960;2023-08-30T00:13:53;99915.09;;;13.24;100.00
39443;BME280;25147;52.142;9.960;2023-08-30T00:16:23;99708.09;;;12.10;100.00
39443;BME280;25147;52.142;9.960;2023-08-30T00:18:50;99804.53;;;12.55;100.00
39443;BME280;25147;52.142;9.960;2023-08-30T00:21:17;99897.00;;;13.17;100.00
39443;BME280;25147;52.142;9.960;2023-08-30T00:23:46;99792.38;;;12.53;100.00
39443;BME280;25147;52.142;9.960;2023-08-30T00:26:14;99715.56;;;11.96;100.00
39443;BME280;25147;52.142;9.960;2023-08-30T00:32:19;99645.84;;;11.62;100.00
39443;BME280;25147;52.142;9.960;2023-08-30T00:34:49;99784.72;;;12.47;100.00
39443;BME280;25147;52.142;9.960;2023-08-30T00:37:17;99865.41;;;12.93;100.00
39443;BME280;25147;52.142;9.960;2023-08-30T00:39:46;99586.75;;;11.25;100.00
39443;BME280;25147;52.142;9.960;2023-08-30T00:42:16;99734.22;;;12.13;100.00
39443;BME280;25147;52.142;9.960;2023-08-30T00:44:42;99735.44;;;12.03;100.00
39443;BME280;25147;52.142;9.960;2023-08-30T00:47:10;99631.03;;;11.34;100.00
39443;BME280;25147;52.142;9.960;2023-08-30T00:49:40;99899.19;;;13.04;100.00
39443;BME280;25147;52.142;9.960;2023-08-30T00:52:11;99764.34;;;12.28;100.00
39443;BME280;25147;52.142;9.960;2023-08-30T00:57:31;99600.94;;;11.19;100.00
39443;BME280;25147;52.142;9.960;2023-08-30T01:11:16;99894.25;;;12.95;100.00
39443;BME280;25147;52.142;9.960;2023-08-30T01:14:15;99876.56;;;13.00;100.00
39443;BME280;25147;52.142;9.960;2023-08-30T01:16:42;99788.22;;;12.45;100.00
39443;BME280;25147;52.142;9.960;2023-08-30T01:19:32;99660.63;;;11.64;100.00
39443;BME280;25147;52.142;9.960;2023-08-30T01:22:11;99873.97;;;12.98;100.00
39443;BME280;25147;52.142;9.960;2023-08-30T01:24:45;99870.50;;;12.98;100.00
39443;BME280;25147;52.142;9.960;2023-08-30T01:27:17;99671.13;;;11.64;100.00
39443;BME280;25147;52.142;9.960;2023-08-30T01:29:46;99868.72;;;12.98;100.00
39443;BME280;25147;52.142;9.960;2023-08-30T01:32:14;99862.56;;;12.99;100.00
39443;BME280;25147;52.142;9.960;2023-08-30T01:34:42;99791.69;;;12.48;100.00
39443;BME280;25147;52.142;9.960;2023-08-30T01:37:13;99800.44;;;12.48;100.00
39443;BME280;25147;52.142;9.960;2023-08-30T01:39:41;99803.66;;;12.56;100.00
39443;BME280;25147;52.142;9.960;2023-08-30T01:42:09;99778.09;;;12.35;100.00
39443;BME280;25147;52.142;9.960;2023-08-30T01:44:37;99858.03;;;12.78;100.00
39443;BME280;25147;52.142;9.960;2023-08-30T01:47:05;99765.44;;;12.21;100.00
39443;BME280;25147;52.142;9.960;2023-08-30T01:49:32;99695.63;;;11.62;100.00
39443;BME280;25147;52.142;9.960;2023-08-30T01:52:03;99850.53;;;12.67;100.00
39443;BME280;25147;52.142;9.960;2023-08-30T01:54:31;99646.09;;;11.28;100.00
39443;BME280;25147;52.142;9.960;2023-08-30T01:56:58;99858.88;;;12.53;100.00
39443;BME280;25147;52.142;9.960;2023-08-30T01:59:25;99862.59;;;12.48;100.00
39443;BME280;25147;52.142;9.960;2023-08-30T02:01:53;99477.84;;;10.05;100.00
39443;BME280;25147;52.142;9.960;2023-08-30T02:04:20;99879.63;;;12.34;100.00
39443;BME280;25147;52.142;9.960;2023-08-30T02:06:53;99857.06;;;12.29;100.00
39443;BME280;25147;52.142;9.960;2023-08-30T02:09:26;99860.81;;;12.21;100.00
39443;BME280;25147;52.142;9.960;2023-08-30T02:11:54;99828.41;;;11.94;100.00
39443;BME280;25147;52.142;9.960;2023-08-30T02:14:22;99797.78;;;11.67;100.00
39443;BME280;25147;52.142;9.960;2023-08-30T02:16:52;99801.13;;;11.70;100.00
39443;BME280;25147;52.142;9.960;2023-08-30T02:19:22;99818.38;;;11.79;100.00
39443;BME280;25147;52.142;9.960;2023-08-30T02:21:49;99682.22;;;10.87;100.00
39443;BME280;25147;52.142;9.960;2023-08-30T02:24:16;99839.34;;;11.79;100.00
39443;BME280;25147;52.142;9.960;2023-08-30T02:26:43;99849.16;;;11.72;100.00
39443;BME280;25147;52.142;9.960;2023-08-30T02:29:10;99849.44;;;11.63;100.00
39443;BME280;25147;52.142;9.960;2023-08-30T02:31:38;99857.53;;;11.55;100.00
39443;BME280;25147;52.142;9.960;2023-08-30T02:34:06;99858.53;;;11.51;100.00
39443;BME280;25147;52.142;9.960;2023-08-30T02:36:33;99733.28;;;10.72;100.00
39443;BME280;25147;52.142;9.960;2023-08-30T02:39:00;99846.69;;;11.38;100.00
39443;BME280;25147;52.142;9.960;2023-08-30T02:41:27;99850.75;;;11.48;100.00
39443;BME280;25147;52.142;9.960;2023-08-30T02:43:53;99667.94;;;10.37;100.00
39443;BME280;25147;52.142;9.960;2023-08-30T02:46:20;99545.16;;;9.67;100.00
39443;BME280;25147;52.142;9.960;2023-08-30T02:48:47;99849.94;;;11.46;100.00
39443;BME280;25147;52.142;9.960;2023-08-30T02:51:15;99813.03;;;11.22;100.00
39443;BME280;25147;52.142;9.960;2023-08-30T02:53:42;99844.91;;;11.38;100.00
39443;BME280;25147;52.142;9.960;2023-08-30T02:56:09;99833.03;;;11.27;100.00
39443;BME280;25147;52.142;9.960;2023-08-30T02:58:36;99845.97;;;11.31;100.00
39443;BME280;25147;52.142;9.960;2023-08-30T03:01:03;99850.47;;;11.28;100.00
39443;BME280;25147;52.142;9.960;2023-08-30T03:03:30;99819.59;;;11.08;100.00
39443;BME280;25147;52.142;9.960;2023-08-30T03:05:57;99637.31;;;9.74;100.00
39443;BME280;25147;52.142;9.960;2023-08-30T03:08:25;99805.28;;;10.88;100.00
39443;BME280;25147;52.142;9.960;2023-08-30T03:10:51;99859.53;;;11.16;100.00
39443;BME280;25147;52.142;9.960;2023-08-30T03:13:19;99822.63;;;10.92;100.00
39443;BME280;25147;52.142;9.960;2023-08-30T03:15:45;99611.50;;;9.61;100.00
39443;BME280;25147;52.142;9.960;2023-08-30T03:18:12;99856.91;;;11.16;100.00
39443;BME280;25147;52.142;9.960;2023-08-30T03:20:39;99849.03;;;11.17;100.00
39443;BME280;25147;52.142;9.960;2023-08-30T03:23:06;99715.19;;;10.31;100.00
39443;BME280;25147;52.142;9.960;2023-08-30T03:25:34;99662.66;;;10.04;100.00
39443;BME280;25147;52.142;9.960;2023-08-30T03:28:00;99848.09;;;11.18;100.00
39443;BME280;25147;52.142;9.960;2023-08-30T03:30:29;99834.38;;;11.09;100.00
39443;BME280;25147;52.142;9.960;2023-08-30T03:32:56;99709.56;;;10.47;100.00
39443;BME280;25147;52.142;9.960;2023-08-30T03:35:23;99687.22;;;10.33;100.00
39443;BME280;25147;52.142;9.960;2023-08-30T03:37:50;99830.53;;;11.22;100.00
39443;BME280;25147;52.142;9.960;2023-08-30T03:40:16;99837.41;;;11.26;100.00
39443;BME280;25147;52.142;9.960;2023-08-30T03:42:44;99830.38;;;11.28;100.00
39443;BME280;25147;52.142;9.960;2023-08-30T03:45:11;99788.38;;;11.00;100.00
39443;BME280;25147;52.142;9.960;2023-08-30T03:47:38;99831.13;;;11.32;100.00
39443;BME280;25147;52.142;9.960;2023-08-30T03:50:06;99831.13;;;11.32;100.00
39443;BME280;25147;52.142;9.960;2023-08-30T03:52:34;99834.63;;;11.32;100.00
39443;BME280;25147;52.142;9.960;2023-08-30T03:55:01;99821.50;;;11.32;100.00
39443;BME280;25147;52.142;9.960;2023-08-30T03:57:28;99771.84;;;10.98;100.00
39443;BME280;25147;52.142;9.960;2023-08-30T03:59:57;99824.16;;;11.31;100.00
39443;BME280;25147;52.142;9.960;2023-08-30T04:02:23;99607.91;;;9.98;100.00
39443;BME280;25147;52.142;9.960;2023-08-30T04:04:50;99632.94;;;10.07;100.00
39443;BME280;25147;52.142;9.960;2023-08-30T04:07:17;99741.88;;;10.77;100.00
39443;BME280;25147;52.142;9.960;2023-08-30T04:09:44;99820.09;;;11.20;100.00
39443;BME280;25147;52.142;9.960;2023-08-30T04:12:10;99625.28;;;10.01;100.00
39443;BME280;25147;52.142;9.960;2023-08-30T04:14:37;99787.63;;;10.95;100.00
39443;BME280;25147;52.142;9.960;2023-08-30T04:17:05;99780.81;;;10.89;100.00
39443;BME280;25147;52.142;9.960;2023-08-30T04:19:32;99708.00;;;10.39;100.00
39443;BME280;25147;52.142;9.960;2023-08-30T04:21:59;99817.81;;;11.08;100.00
39443;BME280;25147;52.142;9.960;2023-08-30T04:24:25;99705.47;;;10.36;100.00
39443;BME280;25147;52.142;9.960;2023-08-30T04:26:52;99809.19;;;11.04;100.00
39443;BME280;25147;52.142;9.960;2023-08-30T04:29:20;99808.38;;;11.02;100.00
39443;BME280;25147;52.142;9.960;2023-08-30T04:31:47;99748.31;;;10.65;100.00
39443;BME280;25147;52.142;9.960;2023-08-30T04:34:18;99673.38;;;10.28;100.00
39443;BME280;25147;52.142;9.960;2023-08-30T04:36:45;99807.59;;;10.99;100.00
39443;BME280;25147;52.142;9.960;2023-08-30T04:39:12;99817.31;;;10.95;100.00
39443;BME280;25147;52.142;9.960;2023-08-30T04:41:39;99818.28;;;10.91;100.00
39443;BME280;25147;52.142;9.960;2023-08-30T04:44:06;99818.31;;;10.90;100.00
39443;BME280;25147;52.142;9.960;2023-08-30T04:46:32;99818.41;;;10.87;100.00
39443;BME280;25147;52.142;9.960;2023-08-30T04:49:00;99789.22;;;10.69;100.00
39443;BME280;25147;52.142;9.960;2023-08-30T04:51:30;99842.84;;;10.87;100.00
39443;BME280;25147;52.142;9.960;2023-08-30T04:53:57;99815.75;;;10.88;100.00
39443;BME280;25147;52.142;9.960;2023-08-30T04:56:24;99822.72;;;10.89;100.00
39443;BME280;25147;52.142;9.960;2023-08-30T04:58:50;99803.81;;;10.78;100.00
39443;BME280;25147;52.142;9.960;2023-08-30T05:01:17;99745.09;;;10.54;100.00
39443;BME280;25147;52.142;9.960;2023-08-30T05:03:44;99817.84;;;11.07;100.00
39443;BME280;25147;52.142;9.960;2023-08-30T05:06:11;99816.78;;;11.14;100.00
39443;BME280;25147;52.142;9.960;2023-08-30T05:08:43;99740.59;;;10.60;100.00
39443;BME280;25147;52.142;9.960;2023-08-30T05:11:09;99571.88;;;9.77;100.00
39443;BME280;25147;52.142;9.960;2023-08-30T05:13:36;99416.63;;;8.87;100.00
39443;BME280;25147;52.142;9.960;2023-08-30T05:16:03;99821.38;;;11.37;100.00
39443;BME280;25147;52.142;9.960;2023-08-30T05:18:30;99786.88;;;11.21;100.00
39443;BME280;25147;52.142;9.960;2023-08-30T05:20:57;99813.25;;;11.46;100.00
39443;BME280;25147;52.142;9.960;2023-08-30T05:23:23;99653.84;;;10.41;100.00
39443;BME280;25147;52.142;9.960;2023-08-30T05:25:52;99805.75;;;11.62;100.00
39443;BME280;25147;52.142;9.960;2023-08-30T05:28:18;99729.94;;;11.28;100.00
39443;BME280;25147;52.142;9.960;2023-08-30T05:30:45;99804.31;;;11.81;100.00
39443;BME280;25147;52.142;9.960;2023-08-30T05:33:12;99797.94;;;11.90;100.00
39443;BME280;25147;52.142;9.960;2023-08-30T05:35:39;99800.63;;;11.89;100.00
39443;BME280;25147;52.142;9.960;2023-08-30T05:38:06;99807.94;;;12.06;100.00
39443;BME280;25147;52.142;9.960;2023-08-30T05:40:33;99821.69;;;12.14;100.00
39443;BME280;25147;52.142;9.960;2023-08-30T05:43:01;99756.88;;;11.89;100.00
39443;BME280;25147;52.142;9.960;2023-08-30T05:45:28;99803.88;;;12.23;100.00
39443;BME280;25147;52.142;9.960;2023-08-30T05:47:54;99802.88;;;12.28;100.00
39443;BME280;25147;52.142;9.960;2023-08-30T05:50:21;99788.22;;;12.20;100.00
39443;BME280;25147;52.142;9.960;2023-08-30T05:52:48;99545.78;;;10.68;100.00
39443;BME280;25147;52.142;9.960;2023-08-30T05:55:16;99486.09;;;10.52;100.00
39443;BME280;25147;52.142;9.960;2023-08-30T05:57:42;99796.22;;;12.42;100.00
39443;BME280;25147;52.142;9.960;2023-08-30T06:00:12;99665.72;;;11.69;100.00
39443;BME280;25147;52.142;9.960;2023-08-30T06:02:40;99744.38;;;12.24;100.00
39443;BME280;25147;52.142;9.960;2023-08-30T06:05:07;99776.84;;;12.47;100.00
39443;BME280;25147;52.142;9.960;2023-08-30T06:07:34;99785.00;;;12.64;100.00
39443;BME280;25147;52.142;9.960;2023-08-30T06:10:01;99725.63;;;12.35;100.00
39443;BME280;25147;52.142;9.960;2023-08-30T06:12:28;99769.25;;;12.64;100.00
39443;BME280;25147;52.142;9.960;2023-08-30T06:14:56;99618.91;;;11.83;100.00
39443;BME280;25147;52.142;9.960;2023-08-30T06:17:24;99630.19;;;11.85;100.00
39443;BME280;25147;52.142;9.960;2023-08-30T06:19:51;99695.75;;;12.37;100.00
39443;BME280;25147;52.142;9.960;2023-08-30T06:22:17;99780.94;;;13.04;100.00
39443;BME280;25147;52.142;9.960;2023-08-30T06:24:44;99780.59;;;13.13;100.00
39443;BME280;25147;52.142;9.960;2023-08-30T06:27:11;99696.13;;;12.77;100.00
39443;BME280;25147;52.142;9.960;2023-08-30T06:29:38;99685.78;;;12.72;100.00
39443;BME280;25147;52.142;9.960;2023-08-30T06:32:05;99615.72;;;12.49;100.00
39443;BME280;25147;52.142;9.960;2023-08-30T06:34:34;99623.56;;;12.74;100.00
39443;BME280;25147;52.142;9.960;2023-08-30T06:37:01;99394.09;;;11.40;100.00
39443;BME280;25147;52.142;9.960;2023-08-30T06:39:32;99631.56;;;12.93;100.00
39443;BME280;25147;52.142;9.960;2023-08-30T06:41:59;99772.53;;;13.87;100.00
39443;BME280;25147;52.142;9.960;2023-08-30T06:44:26;99741.75;;;13.67;100.00
39443;BME280;25147;52.142;9.960;2023-08-30T06:46:54;99776.16;;;14.07;100.00
39443;BME280;25147;52.142;9.960;2023-08-30T06:49:21;99625.06;;;13.25;100.00
39443;BME280;25147;52.142;9.960;2023-08-30T06:51:49;99541.50;;;12.90;100.00
39443;BME280;25147;52.142;9.960;2023-08-30T06:54:15;99772.13;;;14.39;100.00
39443;BME280;25147;52.142;9.960;2023-08-30T06:56:56;99783.16;;;14.49;100.00
39443;BME280;25147;52.142;9.960;2023-08-30T06:59:23;99777.53;;;14.58;100.00
39443;BME280;25147;52.142;9.960;2023-08-30T07:01:50;99767.47;;;14.68;100.00
39443;BME280;25147;52.142;9.960;2023-08-30T07:04:16;99767.97;;;14.76;100.00
39443;BME280;25147;52.142;9.960;2023-08-30T07:06:43;99761.50;;;14.83;100.00
39443;BME280;25147;52.142;9.960;2023-08-30T07:09:11;99662.81;;;14.30;100.00
39443;BME280;25147;52.142;9.960;2023-08-30T07:11:39;99639.53;;;14.21;100.00
39443;BME280;25147;52.142;9.960;2023-08-30T07:14:06;99764.38;;;14.97;100.00
39443;BME280;25147;52.142;9.960;2023-08-30T07:16:32;99680.38;;;14.50;100.00
39443;BME280;25147;52.142;9.960;2023-08-30T07:18:59;99667.75;;;14.38;100.00
39443;BME280;25147;52.142;9.960;2023-08-30T07:21:27;99662.31;;;14.41;100.00
39443;BME280;25147;52.142;9.960;2023-08-30T07:23:54;99573.50;;;13.86;100.00
39443;BME280;25147;52.142;9.960;2023-08-30T07:26:23;99750.91;;;15.03;100.00
39443;BME280;25147;52.142;9.960;2023-08-30T07:28:49;99750.91;;;15.03;100.00
39443;BME280;25147;52.142;9.960;2023-08-30T07:31:16;99750.91;;;15.03;100.00
39443;BME280;25147;52.142;9.960;2023-08-30T07:33:43;99668.69;;;14.57;100.00
39443;BME280;25147;52.142;9.960;2023-08-30T07:36:11;99750.00;;;15.04;100.00
39443;BME280;25147;52.142;9.960;2023-08-30T07:38:38;99745.56;;;15.05;100.00
39443;BME280;25147;52.142;9.960;2023-08-30T07:41:05;99372.53;;;12.69;100.00
39443;BME280;25147;52.142;9.960;2023-08-30T07:43:33;99711.31;;;14.86;100.00
39443;BME280;25147;52.142;9.960;2023-08-30T07:46:00;99561.50;;;13.79;100.00
39443;BME280;25147;52.142;9.960;2023-08-30T07:48:27;99750.34;;;15.16;100.00
39443;BME280;25147;52.142;9.960;2023-08-30T07:50:54;99752.88;;;15.19;100.00
39443;BME280;25147;52.142;9.960;2023-08-30T07:53:21;99709.97;;;14.96;100.00
39443;BME280;25147;52.142;9.960;2023-08-30T07:55:48;99747.16;;;15.28;100.00
39443;BME280;25147;52.142;9.960;2023-08-30T07:58:17;99749.50;;;15.34;100.00
39443;BME280;25147;52.142;9.960;2023-08-30T08:00:45;99706.31;;;15.18;100.00
39443;BME280;25147;52.142;9.960;2023-08-30T08:03:12;99542.63;;;14.29;100.00
39443;BME280;25147;52.142;9.960;2023-08-30T08:05:40;99695.63;;;15.21;100.00
39443;BME280;25147;52.142;9.960;2023-08-30T08:08:07;99526.44;;;14.18;100.00
39443;BME280;25147;52.142;9.960;2023-08-30T08:10:37;99454.38;;;13.82;100.00
39443;BME280;25147;52.142;9.960;2023-08-30T08:13:03;99739.50;;;15.60;100.00
39443;BME280;25147;52.142;9.960;2023-08-30T08:15:30;99736.50;;;15.68;100.00
39443;BME280;25147;52.142;9.960;2023-08-30T08:17:59;99740.72;;;15.72;100.00
39443;BME280;25147;52.142;9.960;2023-08-30T08:20:26;99740.50;;;15.76;99.32
39443;BME280;25147;52.142;9.960;2023-08-30T08:22:53;99746.44;;;15.81;99.22
39443;BME280;25147;52.142;9.960;2023-08-30T08:25:19;99673.66;;;15.39;99.91
39443;BME280;25147;52.142;9.960;2023-08-30T08:27:48;99744.09;;;15.93;98.83
39443;BME280;25147;52.142;9.960;2023-08-30T08:30:16;99741.16;;;15.99;98.58
39443;BME280;25147;52.142;9.960;2023-08-30T08:32:46;99606.59;;;15.26;98.30
39443;BME280;25147;52.142;9.960;2023-08-30T08:35:14;99697.84;;;15.86;98.19
39443;BME280;25147;52.142;9.960;2023-08-30T08:37:41;99663.53;;;15.67;97.57
39443;BME280;25147;52.142;9.960;2023-08-30T08:40:08;99687.75;;;15.94;97.40
39443;BME280;25147;52.142;9.960;2023-08-30T08:42:36;99737.28;;;16.23;96.23
39443;BME280;25147;52.142;9.960;2023-08-30T08:45:07;99739.88;;;16.25;96.98
39443;BME280;25147;52.142;9.960;2023-08-30T08:47:37;99736.13;;;16.29;97.03
39443;BME280;25147;52.142;9.960;2023-08-30T08:50:05;99739.38;;;16.34;96.62
39443;BME280;25147;52.142;9.960;2023-08-30T08:52:33;99451.22;;;14.69;95.99
39443;BME280;25147;52.142;9.960;2023-08-30T08:55:00;99719.66;;;16.41;96.24
39443;BME280;25147;52.142;9.960;2023-08-30T08:57:28;99734.31;;;16.64;96.18
39443;BME280;25147;52.142;9.960;2023-08-30T08:59:56;99479.19;;;15.25;95.08
39443;BME280;25147;52.142;9.960;2023-08-30T09:02:23;99563.69;;;15.76;94.27
39443;BME280;25147;52.142;9.960;2023-08-30T09:04:52;99737.66;;;17.01;94.00
39443;BME280;25147;52.142;9.960;2023-08-30T09:07:19;99713.09;;;16.99;94.24
39443;BME280;25147;52.142;9.960;2023-08-30T09:09:47;99734.06;;;17.20;93.55
39443;BME280;25147;52.142;9.960;2023-08-30T09:12:17;99730.88;;;17.29;92.98
39443;BME280;25147;52.142;9.960;2023-08-30T09:14:53;99714.44;;;17.24;92.06
39443;BME280;25147;52.142;9.960;2023-08-30T09:17:20;99718.28;;;17.34;90.79
39443;BME280;25147;52.142;9.960;2023-08-30T09:19:47;99733.28;;;17.50;89.92
39443;BME280;25147;52.142;9.960;2023-08-30T09:22:14;99691.81;;;17.34;89.82
39443;BME280;25147;52.142;9.960;2023-08-30T09:24:41;99738.38;;;17.69;89.21
39443;BME280;25147;52.142;9.960;2023-08-30T09:27:10;99735.31;;;17.76;88.21
39443;BME280;25147;52.142;9.960;2023-08-30T09:29:38;99735.91;;;17.81;87.37
39443;BME280;25147;52.142;9.960;2023-08-30T09:32:07;99729.59;;;17.84;86.58
39443;BME280;25147;52.142;9.960;2023-08-30T09:34:34;99729.34;;;17.89;86.57
39443;BME280;25147;52.142;9.960;2023-08-30T09:37:01;99726.34;;;17.95;86.59
39443;BME280;25147;52.142;9.960;2023-08-30T09:39:27;99727.63;;;18.03;86.68
39443;BME280;25147;52.142;9.960;2023-08-30T09:41:54;99715.91;;;18.08;85.74
39443;BME280;25147;52.142;9.960;2023-08-30T09:44:23;99692.19;;;17.90;85.50
39443;BME280;25147;52.142;9.960;2023-08-30T09:46:51;99689.44;;;17.92;84.07
39443;BME280;25147;52.142;9.960;2023-08-30T09:49:20;99671.00;;;17.74;81.88
39443;BME280;25147;52.142;9.960;2023-08-30T09:51:48;99731.88;;;18.06;81.37
39443;BME280;25147;52.142;9.960;2023-08-30T09:54:16;99724.28;;;18.00;81.38
39443;BME280;25147;52.142;9.960;2023-08-30T09:56:44;99716.84;;;17.91;81.19
39443;BME280;25147;52.142;9.960;2023-08-30T09:59:13;99569.88;;;16.91;82.34
39443;BME280;25147;52.142;9.960;2023-08-30T10:01:43;99702.53;;;17.79;82.40
39443;BME280;25147;52.142;9.960;2023-08-30T10:04:10;99706.38;;;17.89;82.73
39443;BME280;25147;52.142;9.960;2023-08-30T10:06:38;99719.44;;;17.92;82.26
39443;BME280;25147;52.142;9.960;2023-08-30T10:09:06;99710.63;;;17.92;82.23
39443;BME280;25147;52.142;9.960;2023-08-30T10:11:35;99714.72;;;17.97;82.31
39443;BME280;25147;52.142;9.960;2023-08-30T10:14:03;99684.66;;;17.82;82.40
39443;BME280;25147;52.142;9.960;2023-08-30T10:16:35;99699.69;;;17.98;83.53
39443;BME280;25147;52.142;9.960;2023-08-30T10:19:09;99707.84;;;18.09;82.32
39443;BME280;25147;52.142;9.960;2023-08-30T10:21:36;99719.97;;;18.13;82.28
39443;BME280;25147;52.142;9.960;2023-08-30T10:24:07;99692.81;;;18.10;81.55
39443;BME280;25147;52.142;9.960;2023-08-30T10:26:36;99706.94;;;18.24;83.11
39443;BME280;25147;52.142;9.960;2023-08-30T10:29:04;99729.47;;;18.32;83.62
39443;BME280;25147;52.142;9.960;2023-08-30T10:31:32;99701.50;;;18.42;84.30
39443;BME280;25147;52.142;9.960;2023-08-30T10:33:58;99696.00;;;18.45;82.98
39443;BME280;25147;52.142;9.960;2023-08-30T10:36:27;99593.91;;;17.95;82.48
39443;BME280;25147;52.142;9.960;2023-08-30T10:38:54;99703.63;;;18.80;82.10
39443;BME280;25147;52.142;9.960;2023-08-30T10:41:21;99694.06;;;18.92;80.74
39443;BME280;25147;52.142;9.960;2023-08-30T10:43:50;99693.59;;;18.99;79.32
39443;BME280;25147;52.142;9.960;2023-08-30T10:46:29;99700.09;;;19.08;79.69
39443;BME280;25147;52.142;9.960;2023-08-30T10:49:08;99689.00;;;19.16;79.40
39443;BME280;25147;52.142;9.960;2023-08-30T10:51:38;99677.91;;;19.23;78.84
39443;BME280;25147;52.142;9.960;2023-08-30T10:54:11;99685.66;;;19.27;77.22
39443;BME280;25147;52.142;9.960;2023-08-30T10:56:48;99682.06;;;19.28;77.61
39443;BME280;25147;52.142;9.960;2023-08-30T10:59:16;99665.78;;;19.19;78.18
39443;BME280;25147;52.142;9.960;2023-08-30T11:01:44;99679.97;;;19.33;77.31
39443;BME280;25147;52.142;9.960;2023-08-30T11:04:12;99672.84;;;19.33;77.17
39443;BME280;25147;52.142;9.960;2023-08-30T11:06:43;99664.78;;;19.35;76.90
39443;BME280;25147;52.142;9.960;2023-08-30T11:09:12;99522.56;;;18.49;76.34
39443;BME280;25147;52.142;9.960;2023-08-30T11:11:39;99660.88;;;19.40;76.00
39443;BME280;25147;52.142;9.960;2023-08-30T11:14:07;99583.00;;;19.00;76.17
39443;BME280;25147;52.142;9.960;2023-08-30T11:16:34;99657.00;;;19.46;75.65
39443;BME280;25147;52.142;9.960;2023-08-30T11:19:01;99581.41;;;18.97;75.01
39443;BME280;25147;52.142;9.960;2023-08-30T11:21:29;99617.56;;;19.13;76.33
39443;BME280;25147;52.142;9.960;2023-08-30T11:23:58;99645.50;;;19.18;76.16
39443;BME280;25147;52.142;9.960;2023-08-30T11:26:25;99561.78;;;18.58;76.63
39443;BME280;25147;52.142;9.960;2023-08-30T11:28:53;99619.50;;;18.68;76.01
39443;BME280;25147;52.142;9.960;2023-08-30T11:31:20;99576.72;;;18.31;76.84
39443;BME280;25147;52.142;9.960;2023-08-30T11:33:52;99568.69;;;18.18;77.40
39443;BME280;25147;52.142;9.960;2023-08-30T11:36:21;99659.75;;;18.60;79.20
39443;BME280;25147;52.142;9.960;2023-08-30T11:38:49;99644.34;;;18.52;79.87
39443;BME280;25147;52.142;9.960;2023-08-30T11:41:17;99433.50;;;17.17;80.90
39443;BME280;25147;52.142;9.960;2023-08-30T11:43:45;99490.16;;;17.43;81.31
39443;BME280;25147;52.142;9.960;2023-08-30T11:46:12;99646.31;;;18.34;81.81
39443;BME280;25147;52.142;9.960;2023-08-30T11:48:39;99649.88;;;18.33;81.57
39443;BME280;25147;52.142;9.960;2023-08-30T11:51:07;99592.69;;;18.00;83.06
39443;BME280;25147;52.142;9.960;2023-08-30T11:53:34;99560.19;;;17.82;81.87
39443;BME280;25147;52.142;9.960;2023-08-30T11:56:01;99635.69;;;18.34;82.20
39443;BME280;25147;52.142;9.960;2023-08-30T11:58:33;99633.06;;;18.34;82.14
39443;BME280;25147;52.142;9.960;2023-08-30T12:01:01;99632.28;;;18.32;81.65
39443;BME280;25147;52.142;9.960;2023-08-30T12:03:29;99644.66;;;18.32;81.79
39443;BME280;25147;52.142;9.960;2023-08-30T12:05:56;99584.66;;;18.02;81.27
39443;BME280;25147;52.142;9.960;2023-08-30T12:08:25;99633.31;;;18.30;81.48
39443;BME280;25147;52.142;9.960;2023-08-30T12:10:53;99623.66;;;18.29;82.55
39443;BME280;25147;52.142;9.960;2023-08-30T12:13:21;99623.66;;;18.29;83.12
39443;BME280;25147;52.142;9.960;2023-08-30T12:15:50;99623.00;;;18.25;84.25
39443;BME280;25147;52.142;9.960;2023-08-30T12:18:20;99605.88;;;18.16;84.39
39443;BME280;25147;52.142;9.960;2023-08-30T12:20:52;99601.81;;;18.25;84.27
39443;BME280;25147;52.142;9.960;2023-08-30T12:23:20;99595.28;;;18.31;85.15
39443;BME280;25147;52.142;9.960;2023-08-30T12:25:56;99595.66;;;18.39;85.48
39443;BME280;25147;52.142;9.960;2023-08-30T12:28:23;99584.22;;;18.53;84.65
39443;BME280;25147;52.142;9.960;2023-08-30T12:30:51;99344.84;;;17.12;85.33
39443;BME280;25147;52.142;9.960;2023-08-30T12:33:18;99542.25;;;18.59;83.63
39443;BME280;25147;52.142;9.960;2023-08-30T12:35:45;99589.16;;;19.00;83.95
39443;BME280;25147;52.142;9.960;2023-08-30T12:38:12;99585.72;;;19.13;81.59
39443;BME280;25147;52.142;9.960;2023-08-30T12:40:43;99581.63;;;19.21;80.72
39443;BME280;25147;52.142;9.960;2023-08-30T12:43:10;99575.78;;;19.29;79.78
39443;BME280;25147;52.142;9.960;2023-08-30T12:45:38;99437.34;;;18.55;80.06
39443;BME280;25147;52.142;9.960;2023-08-30T12:48:07;99574.13;;;19.41;78.37
39443;BME280;25147;52.142;9.960;2023-08-30T12:50:34;99468.16;;;18.85;78.28
39443;BME280;25147;52.142;9.960;2023-08-30T12:53:02;99459.34;;;18.84;76.31
39443;BME280;25147;52.142;9.960;2023-08-30T12:55:28;99334.81;;;18.16;76.40
39443;BME280;25147;52.142;9.960;2023-08-30T12:57:55;99571.63;;;19.52;75.60
39443;BME280;25147;52.142;9.960;2023-08-30T13:00:22;99512.97;;;19.30;75.58
39443;BME280;25147;52.142;9.960;2023-08-30T13:02:50;99424.00;;;18.84;75.41
39443;BME280;25147;52.142;9.960;2023-08-30T13:05:18;99315.41;;;18.15;73.60
39443;BME280;25147;52.142;9.960;2023-08-30T13:07:47;99538.44;;;19.72;72.45
39443;BME280;25147;52.142;9.960;2023-08-30T13:10:14;99471.88;;;19.35;73.10
39443;BME280;25147;52.142;9.960;2023-08-30T13:12:42;99410.50;;;19.01;72.80
39443;BME280;25147;52.142;9.960;2023-08-30T13:15:10;99530.69;;;19.82;73.30
39443;BME280;25147;52.142;9.960;2023-08-30T13:17:37;99381.91;;;18.92;73.23